Time;durP1;ratioP1;P1;durP2;ratioP2;P2;SDS_P1;SDS_P2;PMS_P1;PMS_P2;Temp;Humidity;BMP_temperature;BMP_pressure;BME280_temperature;BME280_humidity;BME280_pressure;Samples;Min_cycle;Max_cycle;Signal;HPM_P1;HPM_P2
2023/03/14 00:04:29;;;;;;;2.33;0.50;;;;;;;8.74;100.00;96364.22;22042741;27;20020;-55
2023/03/14 00:14:32;;;;;;;4.90;0.20;;;;;;;8.71;100.00;96412.50;22062907;27;20048;-56
2023/03/14 00:24:35;;;;;;;0.10;0.10;;;;;;;8.69;100.00;96434.34;22062446;27;20432;-55
2023/03/14 00:34:38;;;;;;;1.73;0.20;;;;;;;8.67;100.00;96436.53;22062498;27;20111;-55
2023/03/14 00:44:40;;;;;;;0.83;0.10;;;;;;;8.64;100.00;96396.69;22042549;27;20317;-52
2023/03/14 00:54:43;;;;;;;0.40;0.10;;;;;;;8.61;100.00;96389.19;22062027;27;20046;-57
2023/03/14 01:04:48;;;;;;;0.23;0.10;;;;;;;8.61;100.00;96398.06;22061857;27;20040;-56
2023/03/14 01:14:50;;;;;;;0.10;0.00;;;;;;;8.52;100.00;96409.78;22061619;27;20028;-56
2023/03/14 01:24:53;;;;;;;0.53;0.13;;;;;;;8.46;100.00;96423.28;22061778;27;20359;-56
2023/03/14 01:34:56;;;;;;;0.40;0.00;;;;;;;8.45;100.00;96383.97;22061608;27;20020;-55
2023/03/14 01:45:01;;;;;;;0.87;0.20;;;;;;;8.40;100.00;96381.31;22041386;27;20021;-56
2023/03/14 01:55:10;;;;;;;0.77;0.00;;;;;;;8.35;100.00;96372.50;22064198;27;20021;-57
2023/03/14 02:05:15;;;;;;;0.00;0.00;;;;;;;8.12;100.00;96366.81;22066367;27;20035;-56
2023/03/14 02:15:18;;;;;;;0.30;0.10;;;;;;;7.97;100.00;96355.16;22045759;27;20029;-54
2023/03/14 02:25:54;;;;;;;0.63;0.20;;;;;;;7.79;100.00;96323.56;22064831;27;20035;-55
2023/03/14 02:36:01;;;;;;;0.93;0.10;;;;;;;7.67;100.00;96291.66;22065120;27;20032;-56
2023/03/14 02:46:06;;;;;;;0.30;0.10;;;;;;;7.58;100.00;96271.88;22064335;27;20470;-56
2023/03/14 02:56:12;;;;;;;0.77;0.13;;;;;;;7.47;100.00;96250.44;22063946;27;20073;-54
2023/03/14 03:06:15;;;;;;;0.23;0.10;;;;;;;7.40;100.00;96236.56;22063889;27;20068;-56
2023/03/14 03:16:17;;;;;;;1.13;0.30;;;;;;;7.35;100.00;96231.22;22043494;27;20033;-56
2023/03/14 03:26:19;;;;;;;0.70;0.00;;;;;;;7.34;100.00;96215.38;22063738;27;20418;-54
2023/03/14 03:36:24;;;;;;;2.63;0.27;;;;;;;7.43;100.00;96200.22;22063357;27;20035;-55
2023/03/14 03:46:27;;;;;;;0.00;0.00;;;;;;;7.42;100.00;96195.94;22043641;27;20036;-55
2023/03/14 03:56:31;;;;;;;0.77;0.20;;;;;;;7.36;100.00;96187.12;22062848;27;20029;-56
2023/03/14 04:06:34;;;;;;;1.20;0.20;;;;;;;7.22;100.00;96164.69;22062655;27;20329;-55
2023/03/14 04:16:36;;;;;;;0.20;0.10;;;;;;;7.11;100.00;96129.84;22061810;27;20419;-56
2023/03/14 04:26:38;;;;;;;0.63;0.10;;;;;;;7.01;100.00;96111.13;22062547;27;20039;-55
2023/03/14 04:36:41;;;;;;;0.10;0.03;;;;;;;6.98;100.00;96100.97;22062267;27;20048;-53
2023/03/14 04:46:43;;;;;;;0.63;0.10;;;;;;;7.04;100.00;96105.19;22062393;27;20025;-51
2023/03/14 04:56:46;;;;;;;2.27;0.10;;;;;;;6.95;100.00;96088.12;22042137;27;20346;-55
2023/03/14 05:06:48;;;;;;;1.73;0.20;;;;;;;6.86;100.00;96060.25;22041720;27;20054;-54
2023/03/14 05:16:51;;;;;;;0.57;0.10;;;;;;;6.74;100.00;96031.91;22061266;27;20082;-52
2023/03/14 05:26:54;;;;;;;0.10;0.00;;;;;;;6.99;100.00;96016.59;22061675;27;20029;-56
2023/03/14 05:36:56;;;;;;;0.23;0.10;;;;;;;7.08;100.00;96016.75;22061422;27;20035;-54
2023/03/14 05:46:58;;;;;;;0.40;0.10;;;;;;;7.14;100.00;95977.97;22041502;27;20325;-55
2023/03/14 05:57:01;;;;;;;0.00;0.00;;;;;;;7.15;100.00;95984.94;22061116;27;20048;-56
2023/03/14 06:07:04;;;;;;;0.20;0.00;;;;;;;7.19;100.00;95987.84;22060924;27;20021;-55
2023/03/14 06:17:06;;;;;;;0.73;0.10;;;;;;;7.34;100.00;95987.62;22060360;27;20435;-56
2023/03/14 06:27:09;;;;;;;0.93;0.10;;;;;;;7.58;100.00;95981.41;22060873;27;20025;-53
2023/03/14 06:37:11;;;;;;;0.63;0.13;;;;;;;7.76;100.00;95969.81;22061254;27;20028;-56
2023/03/14 06:47:14;;;;;;;1.23;0.10;;;;;;;7.95;100.00;95969.75;22064342;27;20032;-53
2023/03/14 06:57:17;;;;;;;0.00;0.00;;;;;;;8.13;100.00;95960.03;22044128;27;20032;-55
2023/03/14 07:07:19;;;;;;;0.47;0.17;;;;;;;8.50;100.00;95975.56;22063873;27;20381;-55
2023/03/14 07:17:22;;;;;;;0.00;0.00;;;;;;;8.71;100.00;95984.87;22063133;27;20029;-56
2023/03/14 07:27:25;;;;;;;1.17;0.00;;;;;;;9.03;100.00;96009.31;22063968;27;20045;-55
2023/03/14 07:37:28;;;;;;;0.17;0.00;;;;;;;9.48;100.00;96029.13;22063012;26;20081;-56
2023/03/14 07:47:30;;;;;;;5.30;2.07;;;;;;;10.11;100.00;96042.03;22042055;26;20389;-53
2023/03/14 07:57:33;;;;;;;0.80;0.20;;;;;;;10.54;100.00;96048.81;22062829;27;20349;-56
2023/03/14 08:07:36;;;;;;;0.10;0.00;;;;;;;10.80;100.00;96066.00;22062860;27;20056;-55
2023/03/14 08:17:38;;;;;;;0.83;0.03;;;;;;;10.68;100.00;96077.38;22042142;27;20029;-55
2023/03/14 08:27:41;;;;;;;1.80;0.00;;;;;;;10.64;100.00;96081.00;22043126;27;20388;-55
2023/03/14 08:37:44;;;;;;;0.10;0.00;;;;;;;10.73;100.00;96087.28;22062071;27;20108;-55
2023/03/14 08:47:47;;;;;;;0.27;0.00;;;;;;;10.87;100.00;96098.00;22062269;27;20037;-56
2023/03/14 08:57:50;;;;;;;0.00;0.00;;;;;;;11.04;100.00;96102.69;22061998;27;20333;-56
2023/03/14 09:07:53;;;;;;;0.10;0.00;;;;;;;10.99;100.00;96116.31;22042261;27;20029;-56
2023/03/14 09:17:57;;;;;;;0.37;0.00;;;;;;;11.09;100.00;96128.81;22061225;27;20058;-56
2023/03/14 09:28:00;;;;;;;0.00;0.00;;;;;;;11.14;100.00;96134.88;22041612;26;20039;-57
2023/03/14 09:38:03;;;;;;;0.00;0.00;;;;;;;10.99;100.00;96165.81;22061470;27;20029;-54
2023/03/14 09:48:12;;;;;;;0.00;0.00;;;;;;;11.25;100.00;96175.16;22061622;27;20064;-56
2023/03/14 09:58:20;;;;;;;0.00;0.00;;;;;;;11.69;100.00;96204.03;22061187;27;20035;-56
2023/03/14 10:08:23;;;;;;;1.30;0.00;;;;;;;12.05;100.00;96223.91;22061167;27;20036;-56
2023/03/14 10:18:29;;;;;;;0.00;0.00;;;;;;;12.23;100.00;96264.59;22026282;27;20129;-57
2023/03/14 10:28:43;;;;;;;0.00;0.00;;;;;;;11.34;100.00;96259.91;22064965;27;20044;-57
2023/03/14 10:38:47;;;;;;;0.00;0.00;;;;;;;11.18;100.00;96273.81;22064873;27;20040;-56
2023/03/14 10:48:49;;;;;;;0.40;0.10;;;;;;;10.27;100.00;96310.66;22044712;27;20048;-56
2023/03/14 10:58:58;;;;;;;0.00;0.00;;;;;;;9.75;100.00;96345.16;22064085;27;20025;-56
2023/03/14 11:09:18;;;;;;;0.00;0.00;;;;;;;9.65;100.00;96387.41;22044043;27;20046;-58
2023/03/14 11:19:48;;;;;;;0.30;0.13;;;;;;;9.51;100.00;96408.16;22062943;27;20020;-57
2023/03/14 11:30:32;;;;;;;0.87;0.20;;;;;;;9.44;100.00;96459.78;22063542;27;20329;-55
2023/03/14 11:40:38;;;;;;;0.80;0.20;;;;;;;9.50;100.00;96488.28;22059814;27;20042;-55
2023/03/14 11:50:44;;;;;;;1.50;0.30;;;;;;;10.14;100.00;96533.75;22043664;27;20029;-56
2023/03/14 12:00:50;;;;;;;2.40;0.40;;;;;;;10.76;100.00;96581.38;22063038;27;20040;-54
2023/03/14 12:11:02;;;;;;;1.90;0.63;;;;;;;10.99;100.00;96622.06;22043302;26;20029;-55
2023/03/14 12:21:11;;;;;;;2.20;0.40;;;;;;;10.61;100.00;96646.53;22042793;27;20020;-54
2023/03/14 12:31:29;;;;;;;2.50;0.60;;;;;;;10.24;100.00;96694.88;22042725;27;20074;-57
2023/03/14 12:41:49;;;;;;;2.60;0.37;;;;;;;9.91;100.00;96740.66;22041678;27;20048;-55
2023/03/14 12:51:59;;;;;;;1.53;0.60;;;;;;;8.52;96.02;96770.78;22062137;27;20037;-56
2023/03/14 13:02:23;;;;;;;2.03;0.67;;;;;;;8.42;100.00;96780.47;22062180;26;20028;-57
2023/03/14 13:12:30;;;;;;;2.73;0.90;;;;;;;9.27;100.00;96791.25;22061919;27;20104;-57
2023/03/14 13:22:36;;;;;;;1.87;0.60;;;;;;;9.75;100.00;96796.72;22061915;27;20067;-55
2023/03/14 13:32:43;;;;;;;2.23;0.43;;;;;;;10.04;96.89;96787.78;22062259;27;20379;-55
2023/03/14 13:42:47;;;;;;;3.40;0.60;;;;;;;10.45;93.42;96800.81;22041198;27;20032;-56
2023/03/14 13:52:56;;;;;;;2.90;0.50;;;;;;;10.38;81.96;96815.78;22060907;27;20039;-56
2023/03/14 14:03:00;;;;;;;2.70;1.07;;;;;;;10.32;84.12;96832.00;22041495;27;20037;-55
2023/03/14 14:13:06;;;;;;;1.40;0.40;;;;;;;10.35;78.89;96844.19;22061125;27;20025;-56
2023/03/14 14:23:24;;;;;;;1.83;0.40;;;;;;;11.30;75.34;96838.00;22060465;27;20072;-56
2023/03/14 14:33:27;;;;;;;1.47;0.47;;;;;;;10.98;72.16;96842.28;22060810;27;20045;-56
2023/03/14 14:43:36;;;;;;;4.23;0.70;;;;;;;10.57;69.37;96834.72;22040259;27;20028;-56
2023/03/14 14:53:43;;;;;;;0.60;0.30;;;;;;;11.08;67.10;96834.00;22040674;26;20033;-55
2023/03/14 15:03:51;;;;;;;2.47;0.43;;;;;;;10.91;69.65;96841.81;22042972;27;20046;-55
2023/03/14 15:13:55;;;;;;;1.13;0.30;;;;;;;11.53;59.94;96833.56;22064173;27;20086;-57
2023/03/14 15:23:57;;;;;;;1.53;0.30;;;;;;;11.00;63.55;96829.25;21971070;27;20021;-54
2023/03/14 15:34:00;;;;;;;0.90;0.30;;;;;;;10.89;60.14;96825.88;21972711;27;20033;-56
2023/03/14 15:44:03;;;;;;;0.83;0.20;;;;;;;10.80;66.48;96823.03;21971771;27;20398;-56
2023/03/14 15:54:06;;;;;;;2.10;0.33;;;;;;;11.03;59.16;96853.00;21971883;27;20055;-55
2023/03/14 16:04:08;;;;;;;0.50;0.20;;;;;;;10.72;66.88;96848.03;21971590;27;20384;-56
2023/03/14 16:14:12;;;;;;;1.13;0.17;;;;;;;10.47;68.23;96849.97;21971421;27;20440;-55
2023/03/14 16:24:14;;;;;;;0.67;0.20;;;;;;;10.05;83.38;96856.91;22055494;27;20405;-56
2023/03/14 16:34:17;;;;;;;1.00;0.30;;;;;;;9.83;87.73;96874.41;22042662;27;20456;-55
2023/03/14 16:44:20;;;;;;;1.00;0.47;;;;;;;9.61;91.14;96887.56;22061876;27;20029;-56
2023/03/14 16:54:23;;;;;;;1.67;0.30;;;;;;;9.11;90.88;96912.75;22062143;27;20039;-55
2023/03/14 17:04:27;;;;;;;0.53;0.20;;;;;;;8.54;100.00;96930.25;22041563;27;20036;-57
2023/03/14 17:14:30;;;;;;;0.93;0.30;;;;;;;8.08;100.00;96931.94;22042250;27;20021;-56
2023/03/14 17:24:33;;;;;;;0.13;0.13;;;;;;;7.53;100.00;96944.37;22061294;27;20037;-56
2023/03/14 17:34:35;;;;;;;0.50;0.30;;;;;;;6.75;100.00;96976.41;22061531;26;20025;-52
2023/03/14 17:44:38;;;;;;;1.17;0.30;;;;;;;6.40;100.00;96993.97;22061420;27;20325;-55
2023/03/14 17:54:41;;;;;;;2.40;0.40;;;;;;;6.17;100.00;97011.28;22041277;27;20079;-55
2023/03/14 18:04:44;;;;;;;0.77;0.30;;;;;;;5.81;100.00;97034.31;22023372;27;20417;-54
2023/03/14 18:14:47;;;;;;;3.03;0.50;;;;;;;5.96;100.00;97061.28;22061290;27;20403;-56
2023/03/14 18:24:50;;;;;;;0.73;0.17;;;;;;;6.05;100.00;97083.13;22060899;27;20032;-55
2023/03/14 18:34:53;;;;;;;0.87;0.40;;;;;;;5.70;100.00;97109.31;22061992;27;20121;-53
2023/03/14 18:44:57;;;;;;;0.50;0.20;;;;;;;5.52;100.00;97109.66;22064570;27;20056;-55
2023/03/14 18:55:00;;;;;;;2.13;0.43;;;;;;;5.17;100.00;97102.81;22026966;27;20034;-55
2023/03/14 19:05:03;;;;;;;1.40;0.37;;;;;;;4.91;100.00;97115.88;22045407;27;20040;-53
2023/03/14 19:15:07;;;;;;;2.10;0.70;;;;;;;4.87;100.00;97117.44;22044308;27;20098;-55
2023/03/14 19:25:10;;;;;;;4.17;0.77;;;;;;;4.79;100.00;97120.53;22063168;26;20388;-52
2023/03/14 19:35:13;;;;;;;0.77;0.20;;;;;;;4.92;100.00;97122.84;22043842;27;20035;-55
2023/03/14 19:45:15;;;;;;;2.00;0.57;;;;;;;5.15;100.00;97132.53;22062997;27;20032;-54
2023/03/14 19:55:18;;;;;;;1.97;0.43;;;;;;;5.35;100.00;97144.59;22043514;27;20037;-55
2023/03/14 20:05:23;;;;;;;1.87;0.37;;;;;;;5.56;100.00;97161.72;22062748;27;20033;-56
2023/03/14 20:15:26;;;;;;;1.87;0.20;;;;;;;5.79;100.00;97194.72;22063488;27;20021;-56
2023/03/14 20:25:28;;;;;;;1.33;0.50;;;;;;;5.84;100.00;97200.12;22062099;27;20025;-56
2023/03/14 20:35:31;;;;;;;3.30;0.57;;;;;;;5.73;100.00;97215.31;22042484;27;20036;-56
2023/03/14 20:45:33;;;;;;;1.63;0.40;;;;;;;5.70;100.00;97216.63;22042257;27;20027;-53
2023/03/14 20:55:36;;;;;;;2.40;0.63;;;;;;;5.99;100.00;97235.22;22062289;27;20058;-56
2023/03/14 21:05:47;;;;;;;1.00;0.40;;;;;;;5.91;100.00;97244.50;22061715;27;20044;-55
2023/03/14 21:15:50;;;;;;;1.87;0.30;;;;;;;5.56;100.00;97226.91;22061418;27;20025;-55
2023/03/14 21:25:55;;;;;;;1.13;0.30;;;;;;;5.53;100.00;97237.31;22061943;27;20033;-55
2023/03/14 21:35:58;;;;;;;2.60;0.57;;;;;;;5.46;100.00;97252.78;22062187;27;20051;-56
2023/03/14 21:46:01;;;;;;;1.17;0.20;;;;;;;5.52;100.00;97252.59;22061390;27;20027;-56
2023/03/14 21:56:05;;;;;;;1.07;0.33;;;;;;;5.38;100.00;97270.09;22061257;27;20079;-55
2023/03/14 22:06:08;;;;;;;2.30;0.43;;;;;;;5.28;100.00;97294.06;22041519;26;20037;-56
2023/03/14 22:16:11;;;;;;;0.33;0.20;;;;;;;5.24;100.00;97315.19;22065331;27;20028;-55
2023/03/14 22:26:13;;;;;;;2.83;0.50;;;;;;;5.10;100.00;97336.16;22065302;27;20036;-57
2023/03/14 22:36:16;;;;;;;1.20;0.30;;;;;;;4.98;100.00;97343.44;22065176;27;20029;-56
2023/03/14 22:46:18;;;;;;;4.07;0.40;;;;;;;4.80;100.00;97350.63;22064599;27;20099;-56
2023/03/14 22:56:21;;;;;;;2.70;0.23;;;;;;;4.64;100.00;97364.78;22064414;27;20064;-57
2023/03/14 23:06:23;;;;;;;2.23;0.30;;;;;;;4.53;100.00;97375.28;22063813;27;20025;-55
2023/03/14 23:16:26;;;;;;;1.53;0.73;;;;;;;4.71;100.00;97394.91;22063710;27;20076;-55
2023/03/14 23:26:44;;;;;;;1.45;0.50;;;;;;;4.55;100.00;97417.91;22063856;27;20322;-56
2023/03/14 23:36:47;;;;;;;2.43;0.70;;;;;;;4.38;100.00;97420.50;22044037;27;20306;-54
2023/03/14 23:46:50;;;;;;;1.70;0.60;;;;;;;4.32;100.00;97443.69;22063323;27;20393;-52
2023/03/14 23:56:52;;;;;;;6.33;0.80;;;;;;;4.20;100.00;97458.94;22063020;26;20053;-56
